Anoka, Minnesota
Current Conditions -  °F | °C
As of 12:21 AM on Wednesday 26 Nov 2014 (Local Time) from KANE Reporting Station
Overcast Overcast  
Wind Chill: 19°   Ceiling: 6000
Heat Index: 27°   Visibility: 10mi
Dew Point: 19°   Wind: 7mph
Humidity: 74%   Direction: 120°ESE
Pressure: 30.02"   Gusts: NA
Location:  45.2°N, 93.39°W
Report Text: KANE 260621Z AUTO 12006KT 10SM OVC060 M03/M07 A3002 RMK AO2
Loading
Personal Weather Stations






























Interactive Weather Map New forecast layout! Learn more

10-Day Weather Forecast

Advertisements
Track Severe Weather on mobile